sensor_id;sensor_type;location;lat;lon;timestamp;temperature;humidity
4960;DHT22;2495;48.200;11.532;2023-07-13T00:01:57;21.60;95.50
4960;DHT22;2495;48.200;11.532;2023-07-13T00:06:58;21.60;96.40
4960;DHT22;2495;48.200;11.532;2023-07-13T00:12:01;21.70;95.90
4960;DHT22;2495;48.200;11.532;2023-07-13T00:17:01;21.60;95.70
4960;DHT22;2495;48.200;11.532;2023-07-13T00:22:03;21.60;95.60
4960;DHT22;2495;48.200;11.532;2023-07-13T00:27:05;21.50;96.10
4960;DHT22;2495;48.200;11.532;2023-07-13T00:32:06;21.40;96.00
4960;DHT22;2495;48.200;11.532;2023-07-13T00:37:08;21.40;96.10
4960;DHT22;2495;48.200;11.532;2023-07-13T00:42:09;21.40;96.00
4960;DHT22;2495;48.200;11.532;2023-07-13T00:47:10;21.40;96.90
4960;DHT22;2495;48.200;11.532;2023-07-13T00:52:11;21.50;96.50
4960;DHT22;2495;48.200;11.532;2023-07-13T00:57:14;21.70;96.20
4960;DHT22;2495;48.200;11.532;2023-07-13T01:02:15;21.60;96.10
4960;DHT22;2495;48.200;11.532;2023-07-13T01:07:17;21.50;95.90
4960;DHT22;2495;48.200;11.532;2023-07-13T01:12:18;21.50;96.10
4960;DHT22;2495;48.200;11.532;2023-07-13T01:17:19;21.50;97.00
4960;DHT22;2495;48.200;11.532;2023-07-13T01:22:20;21.70;97.00
4960;DHT22;2495;48.200;11.532;2023-07-13T01:27:23;21.80;96.30
4960;DHT22;2495;48.200;11.532;2023-07-13T01:32:23;21.80;97.00
4960;DHT22;2495;48.200;11.532;2023-07-13T01:37:25;21.90;97.00
4960;DHT22;2495;48.200;11.532;2023-07-13T01:42:25;22.00;96.80
4960;DHT22;2495;48.200;11.532;2023-07-13T01:47:26;21.90;96.00
4960;DHT22;2495;48.200;11.532;2023-07-13T01:52:28;21.60;95.80
4960;DHT22;2495;48.200;11.532;2023-07-13T01:57:29;21.50;96.00
4960;DHT22;2495;48.200;11.532;2023-07-13T02:02:31;21.20;96.50
4960;DHT22;2495;48.200;11.532;2023-07-13T02:07:32;21.30;96.10
4960;DHT22;2495;48.200;11.532;2023-07-13T02:17:40;21.40;96.30
4960;DHT22;2495;48.200;11.532;2023-07-13T02:22:41;21.30;96.00
4960;DHT22;2495;48.200;11.532;2023-07-13T02:27:43;21.20;96.40
4960;DHT22;2495;48.200;11.532;2023-07-13T02:32:44;21.20;97.20
4960;DHT22;2495;48.200;11.532;2023-07-13T02:37:45;21.30;96.50
4960;DHT22;2495;48.200;11.532;2023-07-13T02:42:46;21.20;96.50
4960;DHT22;2495;48.200;11.532;2023-07-13T02:47:47;21.10;96.70
4960;DHT22;2495;48.200;11.532;2023-07-13T02:52:49;21.10;97.60
4960;DHT22;2495;48.200;11.532;2023-07-13T02:57:50;21.20;97.30
4960;DHT22;2495;48.200;11.532;2023-07-13T03:02:51;21.20;96.60
4960;DHT22;2495;48.200;11.532;2023-07-13T03:07:53;20.90;97.00
4960;DHT22;2495;48.200;11.532;2023-07-13T03:12:54;20.90;96.50
4960;DHT22;2495;48.200;11.532;2023-07-13T03:17:56;20.60;96.60
4960;DHT22;2495;48.200;11.532;2023-07-13T03:22:57;20.70;96.80
4960;DHT22;2495;48.200;11.532;2023-07-13T03:27:58;20.60;96.60
4960;DHT22;2495;48.200;11.532;2023-07-13T03:33:00;20.50;96.90
4960;DHT22;2495;48.200;11.532;2023-07-13T03:38:01;20.50;97.00
4960;DHT22;2495;48.200;11.532;2023-07-13T03:43:03;20.40;97.30
4960;DHT22;2495;48.200;11.532;2023-07-13T03:48:04;20.40;97.20
4960;DHT22;2495;48.200;11.532;2023-07-13T03:53:06;20.50;97.50
4960;DHT22;2495;48.200;11.532;2023-07-13T03:58:28;20.50;97.40
4960;DHT22;2495;48.200;11.532;2023-07-13T04:03:37;20.50;97.40
4960;DHT22;2495;48.200;11.532;2023-07-13T04:08:38;20.40;98.20
4960;DHT22;2495;48.200;11.532;2023-07-13T04:13:39;20.40;97.20
4960;DHT22;2495;48.200;11.532;2023-07-13T04:18:40;20.50;97.10
4960;DHT22;2495;48.200;11.532;2023-07-13T04:23:41;20.50;97.90
4960;DHT22;2495;48.200;11.532;2023-07-13T04:28:43;20.50;97.00
4960;DHT22;2495;48.200;11.532;2023-07-13T04:33:45;20.50;96.90
4960;DHT22;2495;48.200;11.532;2023-07-13T04:38:46;20.30;97.00
4960;DHT22;2495;48.200;11.532;2023-07-13T04:43:47;20.40;98.30
4960;DHT22;2495;48.200;11.532;2023-07-13T04:48:49;20.50;97.40
4960;DHT22;2495;48.200;11.532;2023-07-13T04:53:49;20.50;97.90
4960;DHT22;2495;48.200;11.532;2023-07-13T04:58:51;20.60;97.10
4960;DHT22;2495;48.200;11.532;2023-07-13T05:03:52;20.50;97.40
4960;DHT22;2495;48.200;11.532;2023-07-13T05:08:53;20.40;97.10
4960;DHT22;2495;48.200;11.532;2023-07-13T05:13:54;20.30;97.20
4960;DHT22;2495;48.200;11.532;2023-07-13T05:18:55;20.30;97.00
4960;DHT22;2495;48.200;11.532;2023-07-13T05:23:57;20.20;97.10
4960;DHT22;2495;48.200;11.532;2023-07-13T05:28:58;20.20;97.90
4960;DHT22;2495;48.200;11.532;2023-07-13T05:33:59;20.50;97.90
4960;DHT22;2495;48.200;11.532;2023-07-13T05:39:02;20.70;97.30
4960;DHT22;2495;48.200;11.532;2023-07-13T05:44:02;20.70;96.90
4960;DHT22;2495;48.200;11.532;2023-07-13T05:49:04;20.70;97.80
4960;DHT22;2495;48.200;11.532;2023-07-13T05:54:06;20.80;96.80
4960;DHT22;2495;48.200;11.532;2023-07-13T05:59:07;20.80;96.80
4960;DHT22;2495;48.200;11.532;2023-07-13T06:04:09;20.80;97.00
4960;DHT22;2495;48.200;11.532;2023-07-13T06:09:10;20.90;96.50
4960;DHT22;2495;48.200;11.532;2023-07-13T06:14:11;21.00;96.60
4960;DHT22;2495;48.200;11.532;2023-07-13T06:19:12;20.90;95.90
4960;DHT22;2495;48.200;11.532;2023-07-13T06:24:14;20.90;96.00
4960;DHT22;2495;48.200;11.532;2023-07-13T06:29:15;21.20;96.70
4960;DHT22;2495;48.200;11.532;2023-07-13T06:34:16;21.30;95.20
4960;DHT22;2495;48.200;11.532;2023-07-13T06:39:17;21.70;95.20
4960;DHT22;2495;48.200;11.532;2023-07-13T06:44:18;22.00;95.10
4960;DHT22;2495;48.200;11.532;2023-07-13T06:49:20;22.00;94.60
4960;DHT22;2495;48.200;11.532;2023-07-13T06:54:21;21.80;93.30
4960;DHT22;2495;48.200;11.532;2023-07-13T06:59:22;21.40;94.50
4960;DHT22;2495;48.200;11.532;2023-07-13T07:04:23;21.60;95.00
4960;DHT22;2495;48.200;11.532;2023-07-13T07:09:25;21.90;94.70
4960;DHT22;2495;48.200;11.532;2023-07-13T07:14:26;21.80;93.40
4960;DHT22;2495;48.200;11.532;2023-07-13T07:19:29;21.80;92.20
4960;DHT22;2495;48.200;11.532;2023-07-13T07:24:28;21.60;93.10
4960;DHT22;2495;48.200;11.532;2023-07-13T07:29:30;21.50;93.90
4960;DHT22;2495;48.200;11.532;2023-07-13T07:34:31;21.60;94.30
4960;DHT22;2495;48.200;11.532;2023-07-13T07:39:32;21.50;93.20
4960;DHT22;2495;48.200;11.532;2023-07-13T07:44:33;21.50;93.50
4960;DHT22;2495;48.200;11.532;2023-07-13T07:49:35;21.50;93.90
4960;DHT22;2495;48.200;11.532;2023-07-13T07:54:36;21.60;93.80
4960;DHT22;2495;48.200;11.532;2023-07-13T07:59:37;21.60;92.90
4960;DHT22;2495;48.200;11.532;2023-07-13T08:04:38;21.60;93.70
4960;DHT22;2495;48.200;11.532;2023-07-13T08:09:39;21.70;94.80
4960;DHT22;2495;48.200;11.532;2023-07-13T08:14:40;21.60;94.10
4960;DHT22;2495;48.200;11.532;2023-07-13T08:19:42;21.60;92.60
4960;DHT22;2495;48.200;11.532;2023-07-13T08:24:43;21.40;92.30
4960;DHT22;2495;48.200;11.532;2023-07-13T08:29:44;21.20;93.50
4960;DHT22;2495;48.200;11.532;2023-07-13T08:34:45;21.30;92.50
4960;DHT22;2495;48.200;11.532;2023-07-13T08:39:47;21.00;91.10
4960;DHT22;2495;48.200;11.532;2023-07-13T08:45:03;21.00;91.40
4960;DHT22;2495;48.200;11.532;2023-07-13T08:50:15;21.20;90.70
4960;DHT22;2495;48.200;11.532;2023-07-13T08:55:17;21.30;90.30
4960;DHT22;2495;48.200;11.532;2023-07-13T09:00:16;21.50;91.40
4960;DHT22;2495;48.200;11.532;2023-07-13T09:05:34;21.60;92.00
4960;DHT22;2495;48.200;11.532;2023-07-13T09:10:41;21.40;92.10
4960;DHT22;2495;48.200;11.532;2023-07-13T09:15:43;21.30;91.90
4960;DHT22;2495;48.200;11.532;2023-07-13T09:20:48;21.20;90.80
4960;DHT22;2495;48.200;11.532;2023-07-13T09:25:54;21.50;91.60
4960;DHT22;2495;48.200;11.532;2023-07-13T09:36:24;22.20;91.60
4960;DHT22;2495;48.200;11.532;2023-07-13T09:46:47;22.10;90.70
4960;DHT22;2495;48.200;11.532;2023-07-13T09:51:45;22.20;89.60
4960;DHT22;2495;48.200;11.532;2023-07-13T09:56:47;23.20;88.30
4960;DHT22;2495;48.200;11.532;2023-07-13T10:01:49;23.10;88.00
4960;DHT22;2495;48.200;11.532;2023-07-13T10:06:50;23.10;83.30
4960;DHT22;2495;48.200;11.532;2023-07-13T10:11:51;23.20;82.40
4960;DHT22;2495;48.200;11.532;2023-07-13T10:16:55;23.00;81.70
4960;DHT22;2495;48.200;11.532;2023-07-13T10:21:57;22.90;79.60
4960;DHT22;2495;48.200;11.532;2023-07-13T10:27:01;23.30;84.00
4960;DHT22;2495;48.200;11.532;2023-07-13T10:31:59;23.80;83.20
4960;DHT22;2495;48.200;11.532;2023-07-13T10:37:00;24.00;81.20
4960;DHT22;2495;48.200;11.532;2023-07-13T10:42:03;24.10;80.40
4960;DHT22;2495;48.200;11.532;2023-07-13T10:47:07;24.40;79.50
4960;DHT22;2495;48.200;11.532;2023-07-13T10:57:42;25.50;73.00
4960;DHT22;2495;48.200;11.532;2023-07-13T11:02:43;25.40;73.10
4960;DHT22;2495;48.200;11.532;2023-07-13T11:08:12;25.30;72.00
4960;DHT22;2495;48.200;11.532;2023-07-13T11:13:29;26.80;71.00
4960;DHT22;2495;48.200;11.532;2023-07-13T11:18:12;28.50;66.90
4960;DHT22;2495;48.200;11.532;2023-07-13T11:28:31;28.30;58.30
4960;DHT22;2495;48.200;11.532;2023-07-13T11:33:56;28.00;56.70
4960;DHT22;2495;48.200;11.532;2023-07-13T11:38:59;27.70;59.80
4960;DHT22;2495;48.200;11.532;2023-07-13T11:44:12;28.80;54.40
4960;DHT22;2495;48.200;11.532;2023-07-13T11:49:15;28.80;52.90
4960;DHT22;2495;48.200;11.532;2023-07-13T11:59:32;29.70;51.30
4960;DHT22;2495;48.200;11.532;2023-07-13T12:04:33;29.50;49.00
4960;DHT22;2495;48.200;11.532;2023-07-13T12:09:35;28.30;49.40
4960;DHT22;2495;48.200;11.532;2023-07-13T12:14:36;27.50;51.30
4960;DHT22;2495;48.200;11.532;2023-07-13T12:19:37;28.90;54.70
4960;DHT22;2495;48.200;11.532;2023-07-13T12:24:39;28.70;49.70
4960;DHT22;2495;48.200;11.532;2023-07-13T12:29:39;28.00;50.90
4960;DHT22;2495;48.200;11.532;2023-07-13T12:34:54;28.30;51.00
4960;DHT22;2495;48.200;11.532;2023-07-13T12:39:54;28.40;48.90
4960;DHT22;2495;48.200;11.532;2023-07-13T12:45:06;28.00;47.90
4960;DHT22;2495;48.200;11.532;2023-07-13T12:50:04;28.00;47.90
4960;DHT22;2495;48.200;11.532;2023-07-13T12:55:07;28.10;47.10
4960;DHT22;2495;48.200;11.532;2023-07-13T13:00:30;28.10;47.10
4960;DHT22;2495;48.200;11.532;2023-07-13T13:05:25;27.70;46.10
4960;DHT22;2495;48.200;11.532;2023-07-13T13:10:26;27.80;46.10
4960;DHT22;2495;48.200;11.532;2023-07-13T13:15:27;28.00;44.90
4960;DHT22;2495;48.200;11.532;2023-07-13T13:20:29;27.70;48.90
4960;DHT22;2495;48.200;11.532;2023-07-13T13:25:30;28.10;48.90
4960;DHT22;2495;48.200;11.532;2023-07-13T13:30:32;28.10;45.30
4960;DHT22;2495;48.200;11.532;2023-07-13T13:35:33;28.00;45.10
4960;DHT22;2495;48.200;11.532;2023-07-13T13:40:34;27.70;46.20
4960;DHT22;2495;48.200;11.532;2023-07-13T13:45:35;27.50;46.50
4960;DHT22;2495;48.200;11.532;2023-07-13T13:50:37;27.30;49.40
4960;DHT22;2495;48.200;11.532;2023-07-13T13:55:38;27.30;47.40
4960;DHT22;2495;48.200;11.532;2023-07-13T14:00:39;27.30;47.40
4960;DHT22;2495;48.200;11.532;2023-07-13T14:05:40;27.30;47.50
4960;DHT22;2495;48.200;11.532;2023-07-13T14:10:42;28.50;50.20
4960;DHT22;2495;48.200;11.532;2023-07-13T14:15:43;28.70;45.90
4960;DHT22;2495;48.200;11.532;2023-07-13T14:20:45;28.60;49.00
4960;DHT22;2495;48.200;11.532;2023-07-13T14:25:46;28.40;47.50
4960;DHT22;2495;48.200;11.532;2023-07-13T14:30:47;28.50;45.60
4960;DHT22;2495;48.200;11.532;2023-07-13T14:35:49;28.80;49.10
4960;DHT22;2495;48.200;11.532;2023-07-13T14:40:49;28.80;50.00
4960;DHT22;2495;48.200;11.532;2023-07-13T14:45:50;28.50;45.40
4960;DHT22;2495;48.200;11.532;2023-07-13T14:50:53;27.90;45.10
4960;DHT22;2495;48.200;11.532;2023-07-13T14:55:52;28.30;45.50
4960;DHT22;2495;48.200;11.532;2023-07-13T15:00:54;28.60;44.70
4960;DHT22;2495;48.200;11.532;2023-07-13T15:05:55;28.90;49.70
4960;DHT22;2495;48.200;11.532;2023-07-13T15:10:56;29.40;49.40
4960;DHT22;2495;48.200;11.532;2023-07-13T15:15:57;29.60;51.80
4960;DHT22;2495;48.200;11.532;2023-07-13T15:20:58;29.60;47.60
4960;DHT22;2495;48.200;11.532;2023-07-13T15:26:00;29.80;45.20
4960;DHT22;2495;48.200;11.532;2023-07-13T15:31:01;29.70;46.00
4960;DHT22;2495;48.200;11.532;2023-07-13T15:36:02;29.50;44.90
4960;DHT22;2495;48.200;11.532;2023-07-13T15:41:09;29.20;48.60
4960;DHT22;2495;48.200;11.532;2023-07-13T15:46:05;29.40;44.70
4960;DHT22;2495;48.200;11.532;2023-07-13T15:51:09;29.50;45.30
4960;DHT22;2495;48.200;11.532;2023-07-13T15:56:20;29.80;46.00
4960;DHT22;2495;48.200;11.532;2023-07-13T16:01:20;29.70;46.40
4960;DHT22;2495;48.200;11.532;2023-07-13T16:06:34;29.20;44.90
4960;DHT22;2495;48.200;11.532;2023-07-13T16:11:36;28.80;45.10
4960;DHT22;2495;48.200;11.532;2023-07-13T16:16:36;28.40;45.20
4960;DHT22;2495;48.200;11.532;2023-07-13T16:21:43;28.10;48.80
4960;DHT22;2495;48.200;11.532;2023-07-13T16:26:41;28.10;44.80
4960;DHT22;2495;48.200;11.532;2023-07-13T16:32:05;27.80;44.70
4960;DHT22;2495;48.200;11.532;2023-07-13T16:37:10;27.50;48.70
4960;DHT22;2495;48.200;11.532;2023-07-13T16:42:08;27.30;47.30
4960;DHT22;2495;48.200;11.532;2023-07-13T16:47:11;27.20;46.80
4960;DHT22;2495;48.200;11.532;2023-07-13T16:52:12;27.20;50.20
4960;DHT22;2495;48.200;11.532;2023-07-13T16:57:22;27.40;49.10
4960;DHT22;2495;48.200;11.532;2023-07-13T17:07:24;27.20;50.50
4960;DHT22;2495;48.200;11.532;2023-07-13T17:12:26;27.10;46.50
4960;DHT22;2495;48.200;11.532;2023-07-13T17:17:29;26.90;47.90
4960;DHT22;2495;48.200;11.532;2023-07-13T17:22:34;26.80;50.30
4960;DHT22;2495;48.200;11.532;2023-07-13T17:27:35;26.90;50.80
4960;DHT22;2495;48.200;11.532;2023-07-13T17:32:36;26.80;48.50
4960;DHT22;2495;48.200;11.532;2023-07-13T17:37:38;26.60;48.60
4960;DHT22;2495;48.200;11.532;2023-07-13T17:42:40;26.70;53.70
4960;DHT22;2495;48.200;11.532;2023-07-13T17:47:41;26.60;53.40
4960;DHT22;2495;48.200;11.532;2023-07-13T17:52:42;26.70;50.00
4960;DHT22;2495;48.200;11.532;2023-07-13T17:57:44;26.50;52.70
4960;DHT22;2495;48.200;11.532;2023-07-13T18:02:45;26.60;53.80
4960;DHT22;2495;48.200;11.532;2023-07-13T18:07:46;26.60;51.30
4960;DHT22;2495;48.200;11.532;2023-07-13T18:12:47;26.40;50.70
4960;DHT22;2495;48.200;11.532;2023-07-13T18:17:48;26.20;50.70
4960;DHT22;2495;48.200;11.532;2023-07-13T18:22:53;26.00;50.40
4960;DHT22;2495;48.200;11.532;2023-07-13T18:27:54;25.90;53.60
4960;DHT22;2495;48.200;11.532;2023-07-13T18:32:55;25.80;50.90
4960;DHT22;2495;48.200;11.532;2023-07-13T18:37:57;25.60;50.90
4960;DHT22;2495;48.200;11.532;2023-07-13T18:42:58;25.50;51.10
4960;DHT22;2495;48.200;11.532;2023-07-13T18:47:59;25.40;51.60
4960;DHT22;2495;48.200;11.532;2023-07-13T18:53:01;25.30;52.10
4960;DHT22;2495;48.200;11.532;2023-07-13T18:58:02;25.20;52.60
4960;DHT22;2495;48.200;11.532;2023-07-13T19:03:03;25.10;53.00
4960;DHT22;2495;48.200;11.532;2023-07-13T19:08:04;25.10;56.00
4960;DHT22;2495;48.200;11.532;2023-07-13T19:13:07;25.20;55.50
4960;DHT22;2495;48.200;11.532;2023-07-13T19:18:14;25.10;56.20
4960;DHT22;2495;48.200;11.532;2023-07-13T19:23:36;24.90;56.40
4960;DHT22;2495;48.200;11.532;2023-07-13T19:28:40;24.70;56.80
4960;DHT22;2495;48.200;11.532;2023-07-13T19:33:41;24.60;57.60
4960;DHT22;2495;48.200;11.532;2023-07-13T19:38:43;24.50;58.70
4960;DHT22;2495;48.200;11.532;2023-07-13T19:43:44;24.60;58.10
4960;DHT22;2495;48.200;11.532;2023-07-13T19:48:45;24.40;57.70
4960;DHT22;2495;48.200;11.532;2023-07-13T19:53:49;24.30;57.80
4960;DHT22;2495;48.200;11.532;2023-07-13T19:58:50;24.10;58.40
4960;DHT22;2495;48.200;11.532;2023-07-13T20:03:51;24.10;59.60
4960;DHT22;2495;48.200;11.532;2023-07-13T20:08:53;24.20;59.10
4960;DHT22;2495;48.200;11.532;2023-07-13T20:13:54;24.10;58.70
4960;DHT22;2495;48.200;11.532;2023-07-13T20:18:55;24.00;58.50
4960;DHT22;2495;48.200;11.532;2023-07-13T20:23:56;24.10;60.10
4960;DHT22;2495;48.200;11.532;2023-07-13T20:28:58;24.10;59.50
4960;DHT22;2495;48.200;11.532;2023-07-13T20:34:00;24.20;60.40
4960;DHT22;2495;48.200;11.532;2023-07-13T20:39:00;24.20;59.70
4960;DHT22;2495;48.200;11.532;2023-07-13T20:44:01;24.10;60.00
4960;DHT22;2495;48.200;11.532;2023-07-13T20:49:03;23.80;61.90
4960;DHT22;2495;48.200;11.532;2023-07-13T20:54:04;23.90;61.60
4960;DHT22;2495;48.200;11.532;2023-07-13T20:59:05;23.80;63.40
4960;DHT22;2495;48.200;11.532;2023-07-13T21:04:08;23.80;63.10
4960;DHT22;2495;48.200;11.532;2023-07-13T21:09:16;23.70;63.40
4960;DHT22;2495;48.200;11.532;2023-07-13T21:14:15;23.60;64.20
4960;DHT22;2495;48.200;11.532;2023-07-13T21:19:16;23.60;65.70
4960;DHT22;2495;48.200;11.532;2023-07-13T21:24:17;23.70;66.40
4960;DHT22;2495;48.200;11.532;2023-07-13T21:29:19;23.80;66.60
4960;DHT22;2495;48.200;11.532;2023-07-13T21:34:21;23.80;66.10
4960;DHT22;2495;48.200;11.532;2023-07-13T21:39:22;23.40;67.20
4960;DHT22;2495;48.200;11.532;2023-07-13T21:44:28;23.30;66.90
4960;DHT22;2495;48.200;11.532;2023-07-13T21:49:31;23.30;67.80
4960;DHT22;2495;48.200;11.532;2023-07-13T21:54:32;23.10;68.10
4960;DHT22;2495;48.200;11.532;2023-07-13T21:59:33;23.10;68.70
4960;DHT22;2495;48.200;11.532;2023-07-13T22:04:34;23.00;68.90
4960;DHT22;2495;48.200;11.532;2023-07-13T22:09:36;23.10;69.70
4960;DHT22;2495;48.200;11.532;2023-07-13T22:14:38;23.10;69.50
4960;DHT22;2495;48.200;11.532;2023-07-13T22:19:40;23.00;70.10
4960;DHT22;2495;48.200;11.532;2023-07-13T22:24:41;23.00;69.80
4960;DHT22;2495;48.200;11.532;2023-07-13T22:29:42;22.90;69.70
4960;DHT22;2495;48.200;11.532;2023-07-13T22:34:43;22.80;70.00
4960;DHT22;2495;48.200;11.532;2023-07-13T22:39:45;22.70;70.20
4960;DHT22;2495;48.200;11.532;2023-07-13T22:44:46;22.60;70.50
4960;DHT22;2495;48.200;11.532;2023-07-13T22:49:47;22.60;70.70
4960;DHT22;2495;48.200;11.532;2023-07-13T22:54:49;22.70;71.10
4960;DHT22;2495;48.200;11.532;2023-07-13T22:59:50;22.70;70.90
4960;DHT22;2495;48.200;11.532;2023-07-13T23:04:52;22.60;71.00
4960;DHT22;2495;48.200;11.532;2023-07-13T23:09:53;22.50;72.50
4960;DHT22;2495;48.200;11.532;2023-07-13T23:14:54;22.50;73.10
4960;DHT22;2495;48.200;11.532;2023-07-13T23:19:55;22.60;73.30
4960;DHT22;2495;48.200;11.532;2023-07-13T23:24:56;22.60;72.80
4960;DHT22;2495;48.200;11.532;2023-07-13T23:29:58;22.40;73.00
4960;DHT22;2495;48.200;11.532;2023-07-13T23:34:59;22.20;73.40
4960;DHT22;2495;48.200;11.532;2023-07-13T23:40:00;22.10;74.10
4960;DHT22;2495;48.200;11.532;2023-07-13T23:45:01;22.00;74.80
4960;DHT22;2495;48.200;11.532;2023-07-13T23:50:08;21.80;75.90
4960;DHT22;2495;48.200;11.532;2023-07-13T23:55:14;21.80;76.50
